Time,TemperatureF,DewpointF,PressureIn,WindDirection,WindDirectionDegrees,WindSpeedMPH,WindSpeedGustMPH,Humidity,HourlyPrecipIn,Conditions,Clouds,dailyrainin,SoftwareType,DateUTC
2013-05-11 00:01:00,69.4,61.9,29.90,West,263,0.0,0.0,77,0.00,,,0.00,WUHU216DAVISVP2,2013-05-11 04:01:00,
2013-05-11 00:06:00,69.4,61.9,29.90,West,263,0.0,0.0,77,0.00,,,0.00,WUHU216DAVISVP2,2013-05-11 04:06:00,
2013-05-11 00:11:00,69.4,61.9,29.90,West,272,0.0,0.0,77,0.00,,,0.00,WUHU216DAVISVP2,2013-05-11 04:11:00,
2013-05-11 00:16:00,69.6,62.2,29.90,West,272,0.0,0.0,77,0.00,,,0.00,WUHU216DAVISVP2,2013-05-11 04:16:00,
2013-05-11 00:21:00,69.6,62.2,29.90,West,272,0.0,0.0,77,0.00,,,0.00,WUHU216DAVISVP2,2013-05-11 04:21:00,
2013-05-11 00:26:00,69.6,62.2,29.90,West,272,0.0,0.0,77,0.00,,,0.00,WUHU216DAVISVP2,2013-05-11 04:26:00,
2013-05-11 00:31:00,69.6,62.2,29.90,WNW,296,0.0,0.0,77,0.00,,,0.00,WUHU216DAVISVP2,2013-05-11 04:31:00,
2013-05-11 00:36:00,69.8,62.4,29.90,WNW,296,0.0,0.0,77,0.00,,,0.00,WUHU216DAVISVP2,2013-05-11 04:36:00,
2013-05-11 00:41:00,69.8,62.4,29.90,WNW,296,0.0,0.0,77,0.00,,,0.00,WUHU216DAVISVP2,2013-05-11 04:41:00,
2013-05-11 00:46:00,69.8,62.3,29.90,WNW,298,0.0,0.0,77,0.00,,,0.00,WUHU216DAVISVP2,2013-05-11 04:46:00,
2013-05-11 00:51:00,69.8,62.4,29.90,WNW,289,0.0,0.0,77,0.00,,,0.00,WUHU216DAVISVP2,2013-05-11 04:51:00,
2013-05-11 00:56:00,69.9,62.5,29.90,WNW,289,0.0,0.0,77,0.00,,,0.00,WUHU216DAVISVP2,2013-05-11 04:56:00,
2013-05-11 01:01:00,69.9,62.5,29.89,WNW,288,0.0,0.0,77,0.00,,,0.00,WUHU216DAVISVP2,2013-05-11 05:01:00,
2013-05-11 01:06:00,69.9,62.5,29.89,WNW,288,0.0,0.0,77,0.00,,,0.00,WUHU216DAVISVP2,2013-05-11 05:06:00,
2013-05-11 01:11:00,69.9,62.5,29.89,WNW,289,0.0,0.0,77,0.00,,,0.00,WUHU216DAVISVP2,2013-05-11 05:11:00,
2013-05-11 01:16:00,69.9,62.5,29.89,WNW,289,0.0,0.0,77,0.00,,,0.00,WUHU216DAVISVP2,2013-05-11 05:16:00,
2013-05-11 01:21:00,69.8,62.4,29.89,SSE,154,0.0,2.0,77,0.00,,,0.00,WUHU216DAVISVP2,2013-05-11 05:21:00,
2013-05-11 01:26:00,69.8,62.4,29.89,SSE,154,0.0,2.0,77,0.00,,,0.00,WUHU216DAVISVP2,2013-05-11 05:26:00,
2013-05-11 01:31:00,69.8,62.4,29.89,North,0,0.0,4.0,77,0.00,,,0.00,WUHU216DAVISVP2,2013-05-11 05:31:00,
2013-05-11 01:36:00,69.8,62.4,29.89,North,0,0.0,4.0,77,0.00,,,0.00,WUHU216DAVISVP2,2013-05-11 05:36:00,
2013-05-11 01:41:00,69.8,62.4,29.89,North,0,0.0,0.0,77,0.00,,,0.00,WUHU216DAVISVP2,2013-05-11 05:41:00,
2013-05-11 01:46:00,69.6,62.1,29.90,North,0,0.0,0.0,77,0.00,,,0.00,WUHU216DAVISVP2,2013-05-11 05:46:00,
2013-05-11 01:51:00,69.6,62.1,29.90,North,0,0.0,0.0,77,0.00,,,0.00,WUHU216DAVISVP2,2013-05-11 05:51:00,
2013-05-11 01:56:00,69.4,62.2,29.90,North,0,0.0,0.0,78,0.00,,,0.00,WUHU216DAVISVP2,2013-05-11 05:56:00,
2013-05-11 02:01:00,69.4,62.2,29.89,North,0,0.0,0.0,78,0.00,,,0.00,WUHU216DAVISVP2,2013-05-11 06:01:00,
2013-05-11 02:06:00,69.3,62.1,29.89,North,0,0.0,0.0,78,0.00,,,0.00,WUHU216DAVISVP2,2013-05-11 06:06:00,
2013-05-11 02:11:00,69.3,62.1,29.89,North,0,0.0,0.0,78,0.00,,,0.00,WUHU216DAVISVP2,2013-05-11 06:11:00,
2013-05-11 02:16:00,69.1,62.1,29.89,NW,304,0.0,0.0,78,0.00,,,0.00,WUHU216DAVISVP2,2013-05-11 06:16:00,
2013-05-11 02:21:00,69.1,62.1,29.89,NW,304,0.0,0.0,78,0.00,,,0.00,WUHU216DAVISVP2,2013-05-11 06:21:00,
2013-05-11 02:26:00,69.1,62.4,29.89,NW,304,0.0,0.0,79,0.00,,,0.00,WUHU216DAVISVP2,2013-05-11 06:26:00,
2013-05-11 02:32:00,68.9,62.2,29.89,NW,304,0.0,0.0,79,0.00,,,0.00,WUHU216DAVISVP2,2013-05-11 06:32:00,
2013-05-11 02:37:00,68.9,62.2,29.89,NW,304,0.0,0.0,79,0.00,,,0.00,WUHU216DAVISVP2,2013-05-11 06:37:00,
2013-05-11 02:42:00,68.8,62.1,29.89,NW,304,0.0,0.0,79,0.00,,,0.00,WUHU216DAVISVP2,2013-05-11 06:42:00,
2013-05-11 02:47:00,68.8,62.1,29.89,NW,304,0.0,0.0,79,0.00,,,0.00,WUHU216DAVISVP2,2013-05-11 06:47:00,
2013-05-11 02:52:00,68.6,61.9,29.89,NW,304,0.0,0.0,79,0.00,,,0.00,WUHU216DAVISVP2,2013-05-11 06:52:00,
2013-05-11 02:57:00,68.4,62.1,29.89,NW,304,0.0,0.0,80,0.00,,,0.00,WUHU216DAVISVP2,2013-05-11 06:57:00,
2013-05-11 03:02:00,68.4,62.1,29.88,NW,304,0.0,0.0,80,0.00,,,0.00,WUHU216DAVISVP2,2013-05-11 07:02:00,
2013-05-11 03:07:00,68.3,62.0,29.88,NW,304,0.0,0.0,80,0.00,,,0.00,WUHU216DAVISVP2,2013-05-11 07:07:00,
2013-05-11 03:12:00,68.3,62.0,29.88,NW,304,0.0,0.0,80,0.00,,,0.00,WUHU216DAVISVP2,2013-05-11 07:12:00,
2013-05-11 03:17:00,68.1,61.8,29.88,NW,304,0.0,0.0,80,0.00,,,0.00,WUHU216DAVISVP2,2013-05-11 07:17:00,
2013-05-11 03:22:00,68.1,61.8,29.88,WNW,301,0.0,0.0,80,0.00,,,0.00,WUHU216DAVISVP2,2013-05-11 07:22:00,
2013-05-11 03:27:00,67.9,61.6,29.88,WNW,301,0.0,0.0,80,0.00,,,0.00,WUHU216DAVISVP2,2013-05-11 07:27:00,
2013-05-11 03:32:00,67.9,61.6,29.88,WNW,301,0.0,0.0,80,0.00,,,0.00,WUHU216DAVISVP2,2013-05-11 07:32:00,
2013-05-11 03:37:00,67.8,61.5,29.88,WNW,301,0.0,0.0,80,0.00,,,0.00,WUHU216DAVISVP2,2013-05-11 07:37:00,
2013-05-11 03:42:00,67.8,61.5,29.88,WNW,301,0.0,0.0,80,0.00,,,0.00,WUHU216DAVISVP2,2013-05-11 07:42:00,
2013-05-11 03:47:00,67.8,61.8,29.87,WNW,301,0.0,0.0,81,0.00,,,0.00,WUHU216DAVISVP2,2013-05-11 07:47:00,
2013-05-11 03:52:00,67.8,61.8,29.87,WNW,301,0.0,0.0,81,0.00,,,0.00,WUHU216DAVISVP2,2013-05-11 07:52:00,
2013-05-11 03:57:00,67.8,61.8,29.87,WNW,301,0.0,0.0,81,0.00,,,0.00,WUHU216DAVISVP2,2013-05-11 07:57:00,
2013-05-11 04:02:00,67.8,61.8,29.87,WNW,301,0.0,0.0,81,0.00,,,0.00,WUHU216DAVISVP2,2013-05-11 08:02:00,
2013-05-11 04:07:00,67.6,61.6,29.87,WNW,301,0.0,0.0,81,0.00,,,0.00,WUHU216DAVISVP2,2013-05-11 08:07:00,
2013-05-11 04:12:00,67.6,61.6,29.87,WNW,301,0.0,0.0,81,0.00,,,0.00,WUHU216DAVISVP2,2013-05-11 08:12:00,
2013-05-11 04:17:00,67.6,61.6,29.87,WNW,301,0.0,0.0,81,0.00,,,0.00,WUHU216DAVISVP2,2013-05-11 08:17:00,
2013-05-11 04:22:00,67.6,61.6,29.87,WNW,301,0.0,0.0,81,0.00,,,0.00,WUHU216DAVISVP2,2013-05-11 08:22:00,
2013-05-11 04:27:00,67.6,61.6,29.87,WNW,301,0.0,0.0,81,0.00,,,0.00,WUHU216DAVISVP2,2013-05-11 08:27:00,
2013-05-11 04:32:00,67.4,61.4,29.86,WNW,301,0.0,0.0,81,0.00,,,0.00,WUHU216DAVISVP2,2013-05-11 08:32:00,
2013-05-11 04:37:00,67.4,61.4,29.86,WNW,301,0.0,0.0,81,0.00,,,0.00,WUHU216DAVISVP2,2013-05-11 08:37:00,
2013-05-11 04:42:00,67.4,61.4,29.86,WNW,301,0.0,0.0,81,0.00,,,0.00,WUHU216DAVISVP2,2013-05-11 08:42:00,
2013-05-11 04:47:00,67.4,61.4,29.86,WNW,301,0.0,0.0,81,0.00,,,0.00,WUHU216DAVISVP2,2013-05-11 08:47:00,
2013-05-11 04:52:00,67.3,61.3,29.86,WNW,301,0.0,0.0,81,0.00,,,0.00,WUHU216DAVISVP2,2013-05-11 08:52:00,
2013-05-11 04:57:00,67.3,61.3,29.86,WNW,301,0.0,0.0,81,0.00,,,0.00,WUHU216DAVISVP2,2013-05-11 08:57:00,
2013-05-11 05:02:00,67.1,61.1,29.86,WNW,301,0.0,0.0,81,0.00,,,0.00,WUHU216DAVISVP2,2013-05-11 09:02:00,
2013-05-11 05:07:00,67.1,61.1,29.86,WNW,301,0.0,0.0,81,0.00,,,0.00,WUHU216DAVISVP2,2013-05-11 09:07:00,
2013-05-11 05:12:00,66.9,60.9,29.86,WNW,301,0.0,0.0,81,0.00,,,0.00,WUHU216DAVISVP2,2013-05-11 09:12:00,
2013-05-11 05:17:00,66.8,60.8,29.86,WNW,301,0.0,0.0,81,0.00,,,0.00,WUHU216DAVISVP2,2013-05-11 09:17:00,
2013-05-11 05:22:00,66.6,60.6,29.86,WNW,301,0.0,0.0,81,0.00,,,0.00,WUHU216DAVISVP2,2013-05-11 09:22:00,
2013-05-11 05:27:00,66.4,60.1,29.86,WNW,301,0.0,0.0,80,0.00,,,0.00,WUHU216DAVISVP2,2013-05-11 09:27:00,
2013-05-11 05:32:00,66.4,60.5,29.86,WNW,301,0.0,0.0,81,0.00,,,0.00,WUHU216DAVISVP2,2013-05-11 09:32:00,
2013-05-11 05:37:00,66.3,60.0,29.86,South,182,0.0,0.0,80,0.00,,,0.00,WUHU216DAVISVP2,2013-05-11 09:37:00,
2013-05-11 05:42:00,66.3,60.0,29.86,South,182,0.0,0.0,80,0.00,,,0.00,WUHU216DAVISVP2,2013-05-11 09:42:00,
2013-05-11 05:47:00,66.1,59.7,29.86,South,182,0.0,0.0,80,0.00,,,0.00,WUHU216DAVISVP2,2013-05-11 09:47:00,
2013-05-11 05:52:00,66.1,59.7,29.86,South,182,0.0,0.0,80,0.00,,,0.00,WUHU216DAVISVP2,2013-05-11 09:52:00,
2013-05-11 05:57:00,66.3,59.9,29.86,South,182,0.0,0.0,80,0.00,,,0.00,WUHU216DAVISVP2,2013-05-11 09:57:00,
2013-05-11 06:02:00,66.1,59.7,29.86,South,182,0.0,0.0,80,0.00,,,0.00,WUHU216DAVISVP2,2013-05-11 10:02:00,
2013-05-11 06:07:00,66.0,59.7,29.86,South,182,0.0,0.0,80,0.00,,,0.00,WUHU216DAVISVP2,2013-05-11 10:07:00,
2013-05-11 06:12:00,65.8,59.5,29.86,South,182,0.0,0.0,80,0.00,,,0.00,WUHU216DAVISVP2,2013-05-11 10:12:00,
2013-05-11 06:17:00,65.8,59.5,29.87,South,182,0.0,0.0,80,0.00,,,0.00,WUHU216DAVISVP2,2013-05-11 10:17:00,
2013-05-11 06:22:00,65.6,59.3,29.87,South,182,0.0,0.0,80,0.00,,,0.00,WUHU216DAVISVP2,2013-05-11 10:22:00,
2013-05-11 06:27:00,65.5,59.2,29.87,South,182,0.0,0.0,80,0.00,,,0.00,WUHU216DAVISVP2,2013-05-11 10:27:00,
2013-05-11 06:32:00,65.5,59.2,29.87,South,182,0.0,0.0,80,0.00,,,0.00,WUHU216DAVISVP2,2013-05-11 10:32:00,
2013-05-11 06:37:00,65.5,59.2,29.87,South,182,0.0,0.0,80,0.00,,,0.00,WUHU216DAVISVP2,2013-05-11 10:37:00,
2013-05-11 06:42:00,65.5,59.2,29.87,South,184,0.0,0.0,80,0.00,,,0.00,WUHU216DAVISVP2,2013-05-11 10:42:00,
2013-05-11 06:47:00,65.5,59.2,29.87,South,184,0.0,0.0,80,0.00,,,0.00,WUHU216DAVISVP2,2013-05-11 10:47:00,
2013-05-11 06:52:00,65.5,59.5,29.87,South,184,0.0,0.0,81,0.00,,,0.00,WUHU216DAVISVP2,2013-05-11 10:52:00,
2013-05-11 06:57:00,65.5,59.6,29.87,South,184,0.0,0.0,81,0.00,,,0.00,WUHU216DAVISVP2,2013-05-11 10:57:00,
2013-05-11 07:02:00,65.6,59.7,29.87,South,184,0.0,0.0,81,0.00,,,0.00,WUHU216DAVISVP2,2013-05-11 11:02:00,
2013-05-11 07:07:00,65.6,59.7,29.87,South,184,0.0,0.0,81,0.00,,,0.00,WUHU216DAVISVP2,2013-05-11 11:07:00,
2013-05-11 07:12:00,65.8,59.9,29.87,South,184,0.0,0.0,81,0.00,,,0.00,WUHU216DAVISVP2,2013-05-11 11:12:00,
2013-05-11 07:17:00,65.8,59.9,29.87,South,184,0.0,0.0,81,0.00,,,0.00,WUHU216DAVISVP2,2013-05-11 11:17:00,
2013-05-11 07:22:00,66.0,60.1,29.87,South,184,0.0,0.0,81,0.00,,,0.00,WUHU216DAVISVP2,2013-05-11 11:22:00,
2013-05-11 07:27:00,66.0,60.1,29.87,South,184,0.0,0.0,81,0.00,,,0.00,WUHU216DAVISVP2,2013-05-11 11:27:00,
2013-05-11 07:32:00,66.3,60.0,29.88,South,182,0.0,0.0,80,0.00,,,0.00,WUHU216DAVISVP2,2013-05-11 11:32:00,
2013-05-11 07:37:00,66.4,60.1,29.88,South,182,0.0,0.0,80,0.00,,,0.00,WUHU216DAVISVP2,2013-05-11 11:37:00,
2013-05-11 07:42:00,66.6,60.3,29.88,South,182,0.0,0.0,80,0.00,,,0.00,WUHU216DAVISVP2,2013-05-11 11:42:00,
2013-05-11 07:47:00,67.1,60.8,29.87,South,184,0.0,0.0,80,0.00,,,0.00,WUHU216DAVISVP2,2013-05-11 11:47:00,
2013-05-11 07:52:00,67.4,61.1,29.87,South,182,0.0,0.0,80,0.00,,,0.00,WUHU216DAVISVP2,2013-05-11 11:52:00,
2013-05-11 07:57:00,67.9,61.6,29.87,South,182,0.0,0.0,80,0.00,,,0.00,WUHU216DAVISVP2,2013-05-11 11:57:00,
2013-05-11 08:02:00,68.4,61.4,29.87,SSE,167,0.0,0.0,78,0.00,,,0.00,WUHU216DAVISVP2,2013-05-11 12:02:00,
2013-05-11 08:07:00,68.8,62.1,29.87,SSE,167,0.0,0.0,79,0.00,,,0.00,WUHU216DAVISVP2,2013-05-11 12:07:00,
2013-05-11 08:12:00,68.9,61.9,29.87,South,172,0.0,4.0,78,0.00,,,0.00,WUHU216DAVISVP2,2013-05-11 12:12:00,
2013-05-11 08:17:00,69.4,62.3,29.87,South,172,0.0,4.0,78,0.00,,,0.00,WUHU216DAVISVP2,2013-05-11 12:17:00,
2013-05-11 08:22:00,69.8,62.4,29.87,South,172,0.0,0.0,77,0.00,,,0.00,WUHU216DAVISVP2,2013-05-11 12:22:00,
2013-05-11 08:27:00,70.3,62.9,29.87,South,172,0.0,0.0,77,0.00,,,0.00,WUHU216DAVISVP2,2013-05-11 12:27:00,
2013-05-11 08:32:00,70.9,63.1,29.87,South,172,0.0,0.0,76,0.00,,,0.00,WUHU216DAVISVP2,2013-05-11 12:32:00,
2013-05-11 08:37:00,71.3,63.1,29.87,SSE,168,0.0,0.0,75,0.00,,,0.00,WUHU216DAVISVP2,2013-05-11 12:37:00,
2013-05-11 08:43:00,72.0,64.2,29.87,SSE,168,0.0,0.0,76,0.00,,,0.00,WUHU216DAVISVP2,2013-05-11 12:43:00,
2013-05-11 08:48:00,72.5,63.5,29.86,SSE,164,0.0,1.0,73,0.00,,,0.00,WUHU216DAVISVP2,2013-05-11 12:48:00,
2013-05-11 08:53:00,72.7,64.1,29.86,South,169,0.0,1.0,74,0.00,,,0.00,WUHU216DAVISVP2,2013-05-11 12:53:00,
2013-05-11 08:58:00,73.0,64.0,29.86,SSE,162,0.0,2.0,73,0.00,,,0.00,WUHU216DAVISVP2,2013-05-11 12:58:00,
2013-05-11 09:03:00,73.2,63.8,29.86,SSE,162,0.0,2.0,72,0.00,,,0.00,WUHU216DAVISVP2,2013-05-11 13:03:00,
2013-05-11 09:08:00,73.0,63.6,29.86,SSE,160,0.0,0.0,72,0.00,,,0.00,WUHU216DAVISVP2,2013-05-11 13:08:00,
2013-05-11 09:13:00,73.3,63.9,29.86,NE,44,0.0,1.0,72,0.00,,,0.00,WUHU216DAVISVP2,2013-05-11 13:13:00,
2013-05-11 09:18:00,73.5,64.1,29.86,WSW,257,0.0,1.0,72,0.00,,,0.00,WUHU216DAVISVP2,2013-05-11 13:18:00,
2013-05-11 09:23:00,74.0,64.2,29.86,South,176,0.0,1.0,71,0.00,,,0.00,WUHU216DAVISVP2,2013-05-11 13:23:00,
2013-05-11 09:28:00,73.9,63.7,29.86,SE,128,0.0,2.0,70,0.00,,,0.00,WUHU216DAVISVP2,2013-05-11 13:28:00,
2013-05-11 09:33:00,74.4,64.6,29.86,ESE,112,0.0,2.0,71,0.00,,,0.00,WUHU216DAVISVP2,2013-05-11 13:33:00,
2013-05-11 09:38:00,74.6,64.4,29.86,East,95,0.0,4.0,70,0.00,,,0.00,WUHU216DAVISVP2,2013-05-11 13:38:00,
2013-05-11 09:43:00,74.9,64.0,29.86,SE,131,0.0,4.0,69,0.00,,,0.00,WUHU216DAVISVP2,2013-05-11 13:43:00,
2013-05-11 09:48:00,75.3,64.4,29.85,SE,131,0.0,4.0,69,0.00,,,0.00,WUHU216DAVISVP2,2013-05-11 13:48:00,
2013-05-11 09:53:00,75.4,63.7,29.85,NW,304,0.0,6.0,67,0.00,,,0.00,WUHU216DAVISVP2,2013-05-11 13:53:00,
2013-05-11 09:58:00,75.6,63.9,29.85,NE,49,0.0,6.0,67,0.00,,,0.00,WUHU216DAVISVP2,2013-05-11 13:58:00,
2013-05-11 10:03:00,76.3,64.5,29.85,NE,49,0.0,4.0,67,0.00,,,0.00,WUHU216DAVISVP2,2013-05-11 14:03:00,
2013-05-11 10:08:00,76.5,64.7,29.85,NE,47,0.0,0.0,67,0.00,,,0.00,WUHU216DAVISVP2,2013-05-11 14:08:00,
2013-05-11 10:13:00,76.7,63.8,29.85,NE,54,0.0,0.0,64,0.00,,,0.00,WUHU216DAVISVP2,2013-05-11 14:13:00,
2013-05-11 10:18:00,76.7,63.8,29.85,ENE,61,0.0,0.0,64,0.00,,,0.00,WUHU216DAVISVP2,2013-05-11 14:18:00,
2013-05-11 10:23:00,76.8,63.9,29.85,ENE,72,0.0,0.0,64,0.00,,,0.00,WUHU216DAVISVP2,2013-05-11 14:23:00,
2013-05-11 10:28:00,77.2,64.8,29.85,East,85,0.0,0.0,65,0.00,,,0.00,WUHU216DAVISVP2,2013-05-11 14:28:00,
2013-05-11 10:33:00,77.2,63.4,29.85,East,83,0.0,0.0,62,0.00,,,0.00,WUHU216DAVISVP2,2013-05-11 14:33:00,
2013-05-11 10:38:00,77.0,63.0,29.85,NE,51,0.0,2.0,62,0.00,,,0.00,WUHU216DAVISVP2,2013-05-11 14:38:00,
2013-05-11 10:43:00,77.0,63.0,29.85,NE,41,0.0,2.0,62,0.00,,,0.00,WUHU216DAVISVP2,2013-05-11 14:43:00,
2013-05-11 10:48:00,77.4,63.4,29.85,NE,45,0.0,1.0,62,0.00,,,0.00,WUHU216DAVISVP2,2013-05-11 14:48:00,
2013-05-11 10:53:00,77.6,63.3,29.85,NE,49,0.0,0.0,61,0.00,,,0.00,WUHU216DAVISVP2,2013-05-11 14:53:00,
2013-05-11 10:58:00,77.9,63.6,29.83,East,86,0.0,0.0,61,0.00,,,0.00,WUHU216DAVISVP2,2013-05-11 14:58:00,
2013-05-11 11:03:00,78.3,64.0,29.83,NE,56,0.0,0.0,61,0.00,,,0.00,WUHU216DAVISVP2,2013-05-11 15:03:00,
2013-05-11 11:08:00,78.5,64.2,29.83,ESE,113,0.0,1.0,61,0.00,,,0.00,WUHU216DAVISVP2,2013-05-11 15:08:00,
2013-05-11 11:13:00,78.6,63.3,29.83,ENE,69,0.0,2.0,59,0.00,,,0.00,WUHU216DAVISVP2,2013-05-11 15:13:00,
2013-05-11 11:18:00,78.6,63.8,29.83,SSW,206,0.0,2.0,60,0.00,,,0.00,WUHU216DAVISVP2,2013-05-11 15:18:00,
2013-05-11 11:23:00,79.0,64.2,29.83,SSW,203,0.0,2.0,60,0.00,,,0.00,WUHU216DAVISVP2,2013-05-11 15:23:00,
2013-05-11 11:28:00,79.6,64.7,29.83,ENE,68,0.0,1.0,60,0.00,,,0.00,WUHU216DAVISVP2,2013-05-11 15:28:00,
2013-05-11 11:33:00,79.9,63.8,29.83,NE,51,0.0,1.0,58,0.00,,,0.00,WUHU216DAVISVP2,2013-05-11 15:33:00,
2013-05-11 11:38:00,79.8,63.4,29.83,NE,56,0.0,0.0,57,0.00,,,0.00,WUHU216DAVISVP2,2013-05-11 15:38:00,
2013-05-11 11:43:00,80.1,64.2,29.83,ENE,58,0.0,0.0,58,0.00,,,0.00,WUHU216DAVISVP2,2013-05-11 15:43:00,
2013-05-11 11:48:00,80.3,63.9,29.83,ENE,58,0.0,1.0,57,0.00,,,0.00,WUHU216DAVISVP2,2013-05-11 15:48:00,
2013-05-11 11:53:00,80.1,63.0,29.83,NE,37,0.0,4.0,56,0.00,,,0.00,WUHU216DAVISVP2,2013-05-11 15:53:00,
2013-05-11 11:58:00,80.1,63.0,29.83,East,93,0.0,4.0,56,0.00,,,0.00,WUHU216DAVISVP2,2013-05-11 15:58:00,
2013-05-11 12:03:00,79.9,63.3,29.82,NE,49,0.0,1.0,57,0.00,,,0.00,WUHU216DAVISVP2,2013-05-11 16:03:00,
2013-05-11 12:08:00,80.3,63.4,29.82,East,86,0.0,0.0,56,0.00,,,0.00,WUHU216DAVISVP2,2013-05-11 16:08:00,
2013-05-11 12:13:00,80.3,63.9,29.82,NNE,20,0.0,6.0,57,0.00,,,0.00,WUHU216DAVISVP2,2013-05-11 16:13:00,
2013-05-11 12:18:00,81.1,63.6,29.82,ESE,104,0.0,6.0,55,0.00,,,0.00,WUHU216DAVISVP2,2013-05-11 16:18:00,
2013-05-11 12:23:00,80.9,63.4,29.82,NE,55,0.0,0.0,55,0.00,,,0.00,WUHU216DAVISVP2,2013-05-11 16:23:00,
2013-05-11 12:28:00,80.7,63.8,29.82,SE,137,0.0,7.0,56,0.00,,,0.00,WUHU216DAVISVP2,2013-05-11 16:28:00,
2013-05-11 12:33:00,80.9,64.5,29.82,SE,137,0.0,7.0,57,0.00,,,0.00,WUHU216DAVISVP2,2013-05-11 16:33:00,
2013-05-11 12:38:00,81.1,63.6,29.82,SE,134,0.0,0.0,55,0.00,,,0.00,WUHU216DAVISVP2,2013-05-11 16:38:00,
2013-05-11 12:43:00,81.2,63.0,29.81,ESE,120,0.0,0.0,54,0.00,,,0.00,WUHU216DAVISVP2,2013-05-11 16:43:00,
2013-05-11 12:48:00,81.4,64.2,29.81,East,89,0.0,2.0,56,0.00,,,0.00,WUHU216DAVISVP2,2013-05-11 16:48:00,
2013-05-11 12:53:00,81.4,63.7,29.81,ENE,75,0.0,2.0,55,0.00,,,0.00,WUHU216DAVISVP2,2013-05-11 16:53:00,
2013-05-11 12:58:00,80.5,62.3,29.81,North,359,0.0,1.0,54,0.00,,,0.00,WUHU216DAVISVP2,2013-05-11 16:58:00,
2013-05-11 13:03:00,80.3,62.7,29.81,ENE,66,0.0,4.0,55,0.00,,,0.00,WUHU216DAVISVP2,2013-05-11 17:03:00,
2013-05-11 13:08:00,80.5,62.8,29.81,NE,49,0.0,6.0,55,0.00,,,0.00,WUHU216DAVISVP2,2013-05-11 17:08:00,
2013-05-11 13:13:00,80.9,63.2,29.81,NE,52,0.0,6.0,55,0.00,,,0.00,WUHU216DAVISVP2,2013-05-11 17:13:00,
2013-05-11 13:18:00,80.9,63.7,29.80,NE,45,0.0,4.0,56,0.00,,,0.00,WUHU216DAVISVP2,2013-05-11 17:18:00,
2013-05-11 13:23:00,81.1,63.4,29.80,NE,47,0.0,4.0,55,0.00,,,0.00,WUHU216DAVISVP2,2013-05-11 17:23:00,
2013-05-11 13:28:00,81.4,64.7,29.80,NE,45,0.0,1.0,57,0.00,,,0.00,WUHU216DAVISVP2,2013-05-11 17:28:00,
2013-05-11 13:33:00,81.4,63.2,29.79,ENE,75,0.0,2.0,54,0.00,,,0.00,WUHU216DAVISVP2,2013-05-11 17:33:00,
2013-05-11 13:38:00,81.2,62.4,29.79,NE,48,0.0,9.0,53,0.00,,,0.00,WUHU216DAVISVP2,2013-05-11 17:38:00,
2013-05-11 13:43:00,80.7,62.0,29.79,West,281,0.0,9.0,53,0.00,,,0.00,WUHU216DAVISVP2,2013-05-11 17:43:00,
2013-05-11 13:48:00,80.1,61.4,29.79,East,79,0.0,10.0,53,0.00,,,0.00,WUHU216DAVISVP2,2013-05-11 17:48:00,
2013-05-11 13:53:00,79.4,61.8,29.79,SE,136,0.0,10.0,55,0.00,,,0.00,WUHU216DAVISVP2,2013-05-11 17:53:00,
2013-05-11 13:58:00,78.3,62.3,29.79,ENE,66,0.0,4.0,58,0.00,,,0.00,WUHU216DAVISVP2,2013-05-11 17:58:00,
2013-05-11 14:03:00,77.4,62.6,29.80,ENE,62,0.0,1.0,60,0.00,,,0.00,WUHU216DAVISVP2,2013-05-11 18:03:00,
2013-05-11 14:08:00,76.7,62.9,29.80,ENE,62,0.0,1.0,62,0.00,,,0.00,WUHU216DAVISVP2,2013-05-11 18:08:00,
2013-05-11 14:13:00,76.3,63.9,29.79,ENE,61,0.0,0.0,65,0.00,,,0.00,WUHU216DAVISVP2,2013-05-11 18:13:00,
2013-05-11 14:18:00,76.8,63.9,29.79,ENE,62,0.0,0.0,64,0.00,,,0.00,WUHU216DAVISVP2,2013-05-11 18:18:00,
2013-05-11 14:23:00,77.6,64.2,29.79,ENE,62,0.0,0.0,63,0.00,,,0.00,WUHU216DAVISVP2,2013-05-11 18:23:00,
2013-05-11 14:28:00,78.3,64.4,29.79,NNE,24,0.0,0.0,62,0.00,,,0.00,WUHU216DAVISVP2,2013-05-11 18:28:00,
2013-05-11 14:33:00,79.0,64.6,29.79,NNE,25,0.0,0.0,61,0.00,,,0.00,WUHU216DAVISVP2,2013-05-11 18:33:00,
2013-05-11 14:38:00,79.6,64.5,29.79,NNE,25,0.0,0.0,60,0.00,,,0.00,WUHU216DAVISVP2,2013-05-11 18:38:00,
2013-05-11 14:43:00,79.4,64.3,29.78,NW,308,0.0,0.0,60,0.00,,,0.00,WUHU216DAVISVP2,2013-05-11 18:43:00,
2013-05-11 14:48:00,79.4,64.3,29.78,NNE,16,0.0,0.0,60,0.00,,,0.00,WUHU216DAVISVP2,2013-05-11 18:48:00,
2013-05-11 14:53:00,79.0,63.9,29.78,North,8,0.0,0.0,60,0.00,,,0.00,WUHU216DAVISVP2,2013-05-11 18:53:00,
2013-05-11 14:58:00,78.8,63.7,29.77,North,10,0.0,0.0,60,0.00,,,0.00,WUHU216DAVISVP2,2013-05-11 18:58:00,
2013-05-11 15:03:00,79.0,64.4,29.77,ESE,107,0.0,1.0,61,0.00,,,0.00,WUHU216DAVISVP2,2013-05-11 19:03:00,
2013-05-11 15:08:00,79.2,64.3,29.77,ESE,109,0.0,1.0,60,0.00,,,0.00,WUHU216DAVISVP2,2013-05-11 19:08:00,
2013-05-11 15:13:00,79.2,65.3,29.77,ENE,72,0.0,2.0,62,0.00,,,0.00,WUHU216DAVISVP2,2013-05-11 19:13:00,
2013-05-11 15:18:00,79.4,65.2,29.77,ENE,72,0.0,2.0,62,0.00,,,0.00,WUHU216DAVISVP2,2013-05-11 19:18:00,
2013-05-11 15:23:00,79.6,65.0,29.77,ENE,72,0.0,0.0,61,0.00,,,0.00,WUHU216DAVISVP2,2013-05-11 19:23:00,
2013-05-11 15:28:00,79.8,64.7,29.76,ENE,78,0.0,0.0,60,0.00,,,0.00,WUHU216DAVISVP2,2013-05-11 19:28:00,
2013-05-11 15:33:00,79.9,65.2,29.76,ENE,78,0.0,0.0,61,0.00,,,0.00,WUHU216DAVISVP2,2013-05-11 19:33:00,
2013-05-11 15:38:00,80.1,65.2,29.76,ESE,123,0.0,0.0,60,0.00,,,0.00,WUHU216DAVISVP2,2013-05-11 19:38:00,
2013-05-11 15:43:00,80.5,65.6,29.75,ESE,121,0.0,0.0,60,0.00,,,0.00,WUHU216DAVISVP2,2013-05-11 19:43:00,
2013-05-11 15:48:00,80.7,65.8,29.75,ESE,121,0.0,0.0,60,0.00,,,0.00,WUHU216DAVISVP2,2013-05-11 19:48:00,
2013-05-11 15:53:00,80.7,65.3,29.75,ESE,121,0.0,0.0,59,0.00,,,0.00,WUHU216DAVISVP2,2013-05-11 19:53:00,
2013-05-11 15:58:00,80.5,65.1,29.76,ESE,121,0.0,0.0,59,0.00,,,0.00,WUHU216DAVISVP2,2013-05-11 19:58:00,
2013-05-11 16:03:00,80.3,64.4,29.76,ESE,120,0.0,0.0,58,0.00,,,0.00,WUHU216DAVISVP2,2013-05-11 20:03:00,
2013-05-11 16:08:00,80.1,65.2,29.76,ESE,120,0.0,0.0,60,0.00,,,0.00,WUHU216DAVISVP2,2013-05-11 20:08:00,
2013-05-11 16:13:00,79.6,65.2,29.76,ENE,75,0.0,4.0,61,0.00,,,0.00,WUHU216DAVISVP2,2013-05-11 20:13:00,
2013-05-11 16:18:00,78.5,64.6,29.76,ENE,66,0.0,4.0,62,0.00,,,0.00,WUHU216DAVISVP2,2013-05-11 20:18:00,
2013-05-11 16:23:00,77.0,64.6,29.76,ENE,72,0.0,4.0,65,0.00,,,0.00,WUHU216DAVISVP2,2013-05-11 20:23:00,
2013-05-11 16:28:00,75.6,64.1,29.77,ESE,102,0.0,4.0,67,0.00,,,0.00,WUHU216DAVISVP2,2013-05-11 20:28:00,
2013-05-11 16:33:00,74.4,64.2,29.77,ESE,104,0.0,1.0,70,0.01,,,0.01,WUHU216DAVISVP2,2013-05-11 20:33:00,
2013-05-11 16:38:00,73.5,64.1,29.77,ESE,107,0.0,0.0,72,0.01,,,0.01,WUHU216DAVISVP2,2013-05-11 20:38:00,
2013-05-11 16:43:00,72.8,64.2,29.78,ESE,110,0.0,0.0,74,0.01,,,0.01,WUHU216DAVISVP2,2013-05-11 20:43:00,
2013-05-11 16:48:00,72.5,64.3,29.78,ESE,110,0.0,0.0,75,0.02,,,0.02,WUHU216DAVISVP2,2013-05-11 20:48:00,
2013-05-11 16:53:00,72.1,64.3,29.78,ESE,110,0.0,0.0,76,0.02,,,0.02,WUHU216DAVISVP2,2013-05-11 20:53:00,
2013-05-11 16:58:00,72.0,64.5,29.77,ESE,110,0.0,0.0,77,0.02,,,0.02,WUHU216DAVISVP2,2013-05-11 20:58:00,
2013-05-11 17:03:00,72.0,64.9,29.77,ESE,110,0.0,0.0,78,0.03,,,0.03,WUHU216DAVISVP2,2013-05-11 21:03:00,
2013-05-11 17:08:00,72.0,64.9,29.77,ESE,107,0.0,0.0,78,0.03,,,0.03,WUHU216DAVISVP2,2013-05-11 21:08:00,
2013-05-11 17:13:00,72.0,65.2,29.77,ESE,103,0.0,0.0,79,0.03,,,0.03,WUHU216DAVISVP2,2013-05-11 21:13:00,
2013-05-11 17:18:00,72.0,65.5,29.77,ESE,103,0.0,0.0,80,0.03,,,0.03,WUHU216DAVISVP2,2013-05-11 21:18:00,
2013-05-11 17:23:00,72.0,65.5,29.77,ESE,103,0.0,0.0,80,0.03,,,0.03,WUHU216DAVISVP2,2013-05-11 21:23:00,
2013-05-11 17:28:00,72.1,65.7,29.76,ESE,103,0.0,0.0,80,0.03,,,0.03,WUHU216DAVISVP2,2013-05-11 21:28:00,
2013-05-11 17:33:00,72.1,66.0,29.76,ESE,103,0.0,0.0,81,0.02,,,0.03,WUHU216DAVISVP2,2013-05-11 21:33:00,
2013-05-11 17:38:00,72.1,66.0,29.76,ESE,103,0.0,0.0,81,0.02,,,0.03,WUHU216DAVISVP2,2013-05-11 21:38:00,
2013-05-11 17:43:00,71.8,65.7,29.77,ESE,103,0.0,0.0,81,0.02,,,0.03,WUHU216DAVISVP2,2013-05-11 21:43:00,
2013-05-11 17:48:00,71.1,65.0,29.77,ESE,103,0.0,0.0,81,0.01,,,0.03,WUHU216DAVISVP2,2013-05-11 21:48:00,
2013-05-11 17:53:00,70.6,64.8,29.77,ESE,103,0.0,0.0,82,0.01,,,0.03,WUHU216DAVISVP2,2013-05-11 21:53:00,
2013-05-11 17:58:00,70.4,64.7,29.76,East,83,0.0,0.0,82,0.01,,,0.03,WUHU216DAVISVP2,2013-05-11 21:58:00,
2013-05-11 18:03:00,70.4,64.7,29.76,East,83,0.0,0.0,82,0.00,,,0.03,WUHU216DAVISVP2,2013-05-11 22:03:00,
2013-05-11 18:08:00,70.4,64.7,29.76,East,83,0.0,0.0,82,0.00,,,0.03,WUHU216DAVISVP2,2013-05-11 22:08:00,
2013-05-11 18:13:00,70.4,64.7,29.76,East,83,0.0,0.0,82,0.00,,,0.03,WUHU216DAVISVP2,2013-05-11 22:13:00,
2013-05-11 18:18:00,70.4,65.0,29.76,East,83,0.0,0.0,83,0.00,,,0.03,WUHU216DAVISVP2,2013-05-11 22:18:00,
2013-05-11 18:23:00,70.4,65.0,29.76,East,83,0.0,0.0,83,0.00,,,0.03,WUHU216DAVISVP2,2013-05-11 22:23:00,
2013-05-11 18:28:00,70.4,65.0,29.75,East,83,0.0,0.0,83,0.00,,,0.03,WUHU216DAVISVP2,2013-05-11 22:28:00,
2013-05-11 18:33:00,70.4,65.0,29.75,East,83,0.0,0.0,83,0.00,,,0.03,WUHU216DAVISVP2,2013-05-11 22:33:00,
2013-05-11 18:39:00,70.4,65.0,29.75,East,83,0.0,0.0,83,0.00,,,0.03,WUHU216DAVISVP2,2013-05-11 22:39:00,
2013-05-11 18:44:00,70.4,65.0,29.74,East,83,0.0,0.0,83,0.00,,,0.03,WUHU216DAVISVP2,2013-05-11 22:44:00,
2013-05-11 18:49:00,70.6,65.2,29.74,East,83,0.0,0.0,83,0.00,,,0.03,WUHU216DAVISVP2,2013-05-11 22:49:00,
2013-05-11 18:54:00,70.6,65.2,29.74,East,83,0.0,0.0,83,0.00,,,0.03,WUHU216DAVISVP2,2013-05-11 22:54:00,
2013-05-11 18:59:00,70.6,65.6,29.74,East,83,0.0,0.0,84,0.00,,,0.03,WUHU216DAVISVP2,2013-05-11 22:59:00,
2013-05-11 19:04:00,70.6,65.6,29.74,East,83,0.0,0.0,84,0.00,,,0.03,WUHU216DAVISVP2,2013-05-11 23:04:00,
2013-05-11 19:10:00,70.6,65.6,29.74,East,83,0.0,0.0,84,0.00,,,0.03,WUHU216DAVISVP2,2013-05-11 23:10:00,
2013-05-11 19:15:00,70.6,65.5,29.74,East,83,0.0,0.0,84,0.00,,,0.03,WUHU216DAVISVP2,2013-05-11 23:15:00,
2013-05-11 19:20:00,70.6,65.5,29.74,East,83,0.0,0.0,84,0.00,,,0.03,WUHU216DAVISVP2,2013-05-11 23:20:00,
2013-05-11 19:25:00,70.4,65.3,29.74,East,83,0.0,0.0,84,0.00,,,0.03,WUHU216DAVISVP2,2013-05-11 23:25:00,
2013-05-11 19:30:00,70.4,65.3,29.75,East,83,0.0,0.0,84,0.00,,,0.03,WUHU216DAVISVP2,2013-05-11 23:30:00,
2013-05-11 19:35:00,70.3,65.2,29.75,East,83,0.0,0.0,84,0.00,,,0.03,WUHU216DAVISVP2,2013-05-11 23:35:00,
2013-05-11 19:40:00,70.1,65.0,29.75,East,83,0.0,0.0,84,0.00,,,0.03,WUHU216DAVISVP2,2013-05-11 23:40:00,
2013-05-11 19:45:00,69.9,64.8,29.75,East,83,0.0,0.0,84,0.00,,,0.03,WUHU216DAVISVP2,2013-05-11 23:45:00,
2013-05-11 19:50:00,69.9,64.8,29.75,East,83,0.0,0.0,84,0.00,,,0.03,WUHU216DAVISVP2,2013-05-11 23:50:00,
2013-05-11 19:55:00,69.6,64.9,29.75,East,83,0.0,0.0,85,0.00,,,0.03,WUHU216DAVISVP2,2013-05-11 23:55:00,
2013-05-11 20:00:00,69.6,64.9,29.75,East,83,0.0,0.0,85,0.00,,,0.03,WUHU216DAVISVP2,2013-05-12 00:00:00,
2013-05-11 20:05:00,69.4,64.7,29.75,East,83,0.0,0.0,85,0.00,,,0.03,WUHU216DAVISVP2,2013-05-12 00:05:00,
2013-05-11 20:10:00,69.3,64.6,29.75,East,83,0.0,0.0,85,0.00,,,0.03,WUHU216DAVISVP2,2013-05-12 00:10:00,
2013-05-11 20:15:00,69.1,64.4,29.76,East,83,0.0,0.0,85,0.00,,,0.03,WUHU216DAVISVP2,2013-05-12 00:15:00,
2013-05-11 20:20:00,68.9,64.2,29.76,East,83,0.0,0.0,85,0.00,,,0.03,WUHU216DAVISVP2,2013-05-12 00:20:00,
2013-05-11 20:25:00,68.8,64.1,29.76,East,83,0.0,0.0,85,0.00,,,0.03,WUHU216DAVISVP2,2013-05-12 00:25:00,
2013-05-11 20:30:00,68.8,64.1,29.76,East,83,0.0,0.0,85,0.00,,,0.03,WUHU216DAVISVP2,2013-05-12 00:30:00,
2013-05-11 20:35:00,68.6,63.9,29.76,East,83,0.0,0.0,85,0.00,,,0.03,WUHU216DAVISVP2,2013-05-12 00:35:00,
2013-05-11 20:40:00,68.6,63.9,29.76,East,83,0.0,0.0,85,0.00,,,0.03,WUHU216DAVISVP2,2013-05-12 00:40:00,
2013-05-11 20:45:00,68.6,63.9,29.76,East,83,0.0,0.0,85,0.00,,,0.03,WUHU216DAVISVP2,2013-05-12 00:45:00,
2013-05-11 20:50:00,68.4,63.7,29.76,East,83,0.0,0.0,85,0.00,,,0.03,WUHU216DAVISVP2,2013-05-12 00:50:00,
2013-05-11 20:55:00,68.4,63.7,29.76,East,83,0.0,0.0,85,0.00,,,0.03,WUHU216DAVISVP2,2013-05-12 00:55:00,
2013-05-11 21:00:00,68.3,63.6,29.77,East,83,0.0,0.0,85,0.00,,,0.03,WUHU216DAVISVP2,2013-05-12 01:00:00,
2013-05-11 21:05:00,68.3,64.0,29.77,East,83,0.0,0.0,86,0.00,,,0.03,WUHU216DAVISVP2,2013-05-12 01:05:00,
2013-05-11 21:10:00,68.1,63.8,29.77,East,83,0.0,0.0,86,0.00,,,0.03,WUHU216DAVISVP2,2013-05-12 01:10:00,
2013-05-11 21:15:00,68.1,63.8,29.77,East,83,0.0,0.0,86,0.00,,,0.03,WUHU216DAVISVP2,2013-05-12 01:15:00,
2013-05-11 21:20:00,68.1,63.8,29.77,East,83,0.0,0.0,86,0.00,,,0.03,WUHU216DAVISVP2,2013-05-12 01:20:00,
2013-05-11 21:25:00,68.1,63.8,29.77,East,83,0.0,0.0,86,0.00,,,0.03,WUHU216DAVISVP2,2013-05-12 01:25:00,
2013-05-11 21:30:00,68.3,64.0,29.76,East,83,0.0,0.0,86,0.00,,,0.03,WUHU216DAVISVP2,2013-05-12 01:30:00,
2013-05-11 21:35:00,68.3,63.9,29.76,East,85,0.0,0.0,86,0.00,,,0.03,WUHU216DAVISVP2,2013-05-12 01:35:00,
2013-05-11 21:40:00,68.4,64.4,29.76,East,85,0.0,0.0,87,0.00,,,0.03,WUHU216DAVISVP2,2013-05-12 01:40:00,
2013-05-11 21:45:00,68.4,64.4,29.77,East,85,0.0,0.0,87,0.00,,,0.03,WUHU216DAVISVP2,2013-05-12 01:45:00,
2013-05-11 21:50:00,68.4,64.4,29.77,East,85,0.0,0.0,87,0.00,,,0.03,WUHU216DAVISVP2,2013-05-12 01:50:00,
2013-05-11 21:55:00,68.4,64.4,29.77,East,85,0.0,0.0,87,0.00,,,0.03,WUHU216DAVISVP2,2013-05-12 01:55:00,
2013-05-11 22:00:00,68.3,64.3,29.76,East,85,0.0,0.0,87,0.00,,,0.03,WUHU216DAVISVP2,2013-05-12 02:00:00,
2013-05-11 22:05:00,68.3,64.3,29.76,East,85,0.0,0.0,87,0.00,,,0.03,WUHU216DAVISVP2,2013-05-12 02:05:00,
2013-05-11 22:10:00,68.3,64.3,29.76,East,85,0.0,0.0,87,0.00,,,0.03,WUHU216DAVISVP2,2013-05-12 02:10:00,
2013-05-11 22:15:00,68.3,64.3,29.76,East,85,0.0,0.0,87,0.00,,,0.03,WUHU216DAVISVP2,2013-05-12 02:15:00,
2013-05-11 22:20:00,68.3,64.3,29.76,East,85,0.0,0.0,87,0.00,,,0.03,WUHU216DAVISVP2,2013-05-12 02:20:00,
2013-05-11 22:25:00,68.4,64.4,29.76,East,85,0.0,0.0,87,0.00,,,0.03,WUHU216DAVISVP2,2013-05-12 02:25:00,
2013-05-11 22:30:00,68.6,64.6,29.76,East,85,0.0,0.0,87,0.00,,,0.03,WUHU216DAVISVP2,2013-05-12 02:30:00,
2013-05-11 22:35:00,68.6,64.6,29.76,East,85,0.0,0.0,87,0.00,,,0.03,WUHU216DAVISVP2,2013-05-12 02:35:00,
2013-05-11 22:40:00,68.6,64.6,29.76,East,85,0.0,0.0,87,0.00,,,0.03,WUHU216DAVISVP2,2013-05-12 02:40:00,
2013-05-11 22:45:00,68.4,64.4,29.76,East,85,0.0,0.0,87,0.00,,,0.03,WUHU216DAVISVP2,2013-05-12 02:45:00,
2013-05-11 22:50:00,68.4,64.4,29.76,East,85,0.0,0.0,87,0.00,,,0.03,WUHU216DAVISVP2,2013-05-12 02:50:00,
2013-05-11 22:55:00,68.3,64.6,29.76,East,85,0.0,0.0,88,0.00,,,0.03,WUHU216DAVISVP2,2013-05-12 02:55:00,
2013-05-11 23:00:00,68.3,64.6,29.77,East,85,0.0,0.0,88,0.00,,,0.03,WUHU216DAVISVP2,2013-05-12 03:00:00,
2013-05-11 23:05:00,68.9,65.2,29.77,East,99,0.0,0.0,88,0.00,,,0.03,WUHU216DAVISVP2,2013-05-12 03:05:00,
2013-05-11 23:10:00,69.1,65.4,29.77,East,99,0.0,0.0,88,0.00,,,0.03,WUHU216DAVISVP2,2013-05-12 03:10:00,
2013-05-11 23:15:00,69.3,65.6,29.77,East,99,0.0,0.0,88,0.00,,,0.03,WUHU216DAVISVP2,2013-05-12 03:15:00,
2013-05-11 23:20:00,69.3,65.6,29.77,East,99,0.0,0.0,88,0.00,,,0.03,WUHU216DAVISVP2,2013-05-12 03:20:00,
2013-05-11 23:25:00,69.3,65.6,29.77,East,99,0.0,0.0,88,0.00,,,0.03,WUHU216DAVISVP2,2013-05-12 03:25:00,
2013-05-11 23:30:00,69.3,65.6,29.76,East,99,0.0,0.0,88,0.00,,,0.03,WUHU216DAVISVP2,2013-05-12 03:30:00,
2013-05-11 23:35:00,69.3,65.6,29.76,East,99,0.0,0.0,88,0.00,,,0.03,WUHU216DAVISVP2,2013-05-12 03:35:00,
2013-05-11 23:40:00,69.1,65.4,29.76,East,99,0.0,0.0,88,0.00,,,0.03,WUHU216DAVISVP2,2013-05-12 03:40:00,
2013-05-11 23:45:00,68.9,65.2,29.75,East,99,0.0,0.0,88,0.00,,,0.03,WUHU216DAVISVP2,2013-05-12 03:45:00,
2013-05-11 23:50:00,68.9,65.2,29.75,East,99,0.0,0.0,88,0.00,,,0.03,WUHU216DAVISVP2,2013-05-12 03:50:00,
2013-05-11 23:55:00,68.9,65.2,29.75,East,99,0.0,0.0,88,0.00,,,0.03,WUHU216DAVISVP2,2013-05-12 03:55:00,